CDT,Max TemperatureF,Mean TemperatureF,Min TemperatureF,Max Dew PointF,MeanDew PointF,Min DewpointF,Max Humidity, Mean Humidity, Min Humidity, Max Sea Level PressureIn, Mean Sea Level PressureIn, Min Sea Level PressureIn, Max VisibilityMiles, Mean VisibilityMiles, Min VisibilityMiles, Max Wind SpeedMPH, Mean Wind SpeedMPH, Max Gust SpeedMPH,PrecipitationIn, CloudCover, Events, WindDirDegrees
2013-10-1,72,58,45,48,38,30,78,49,23,30.04,29.96,29.81,10,10,3,17,8,24,0.00,0,,32
2013-10-2,79,64,50,55,45,38,76,54,32,29.98,29.90,29.87,10,9,4,20,8,24,0.00,1,,252
2013-10-3,53,51,46,52,49,44,100,95,62,29.90,29.86,29.82,10,7,0,15,7,22,0.57,7,Fog-Rain-Thunderstorm,9
2013-10-4,57,46,35,57,48,33,100,98,93,29.84,29.74,29.55,10,4,0,29,16,39,0.34,8,Rain-Snow-Thunderstorm,20
2013-10-5,38,36,34,37,34,32,97,93,87,29.94,29.83,29.74,10,6,0,30,25,41,0.10,8,Rain-Snow,295
2013-10-6,58,47,36,38,34,30,98,67,35,30.09,30.03,29.95,10,10,2,22,17,31,0.18,2,Rain,308
2013-10-7,77,59,41,46,40,37,89,61,25,30.08,29.99,29.85,10,10,10,14,6,,0.00,0,,217
2013-10-8,75,62,50,47,44,41,72,50,31,29.84,29.78,29.74,10,10,10,17,13,23,0.03,0,,184
2013-10-9,70,56,43,49,46,41,93,69,44,29.91,29.87,29.80,10,10,5,12,4,9,0.00,0,,75
2013-10-10,75,58,41,57,50,41,99,73,42,29.89,29.76,29.54,10,10,7,33,7,43,0.00,0,Rain-Thunderstorm,174
2013-10-11,63,54,45,57,45,37,93,70,54,29.96,29.60,29.36,10,10,7,44,22,54,0.14,3,Rain,235
2013-10-12,59,48,37,37,32,26,83,57,29,30.27,30.13,29.96,10,10,10,20,10,29,0.00,0,,286
2013-10-13,65,52,38,42,33,30,76,49,28,30.31,30.24,30.15,10,10,10,25,11,33,0.00,2,Rain-Thunderstorm,148
2013-10-14,53,48,42,54,46,38,99,92,69,30.15,29.86,29.67,10,9,1,25,18,34,0.58,8,Rain-Thunderstorm,146
2013-10-15,42,40,37,39,35,33,90,84,79,30.15,30.05,29.85,10,10,5,30,22,40,0.04,8,,310
2013-10-16,56,44,33,36,31,23,93,66,28,30.14,30.03,29.92,10,10,10,12,7,9,0.00,2,,269
2013-10-17,44,36,28,37,31,25,85,74,55,30.10,30.02,29.91,10,10,10,24,11,34,0.00,4,,303
2013-10-18,48,38,27,32,28,24,89,71,43,30.11,30.07,29.99,10,10,10,18,8,30,0.00,3,,278
2013-10-19,62,48,35,39,33,29,80,59,31,29.98,29.85,29.77,10,10,10,21,9,28,0.00,4,,264
2013-10-20,55,42,30,38,34,25,89,61,45,30.07,29.88,29.74,10,10,10,28,11,37,0.00,5,,298
2013-10-21,57,44,32,44,36,29,95,76,39,30.06,29.99,29.92,10,10,7,24,6,30,0.00,6,Rain,275
2013-10-22,51,44,36,44,39,34,95,79,55,30.10,30.03,29.94,10,10,7,23,12,31,0.02,4,Rain,321
2013-10-23,54,45,37,41,37,33,96,78,55,30.25,30.09,29.97,10,10,10,17,8,25,0.00,5,,317
2013-10-24,48,38,28,36,31,25,94,75,51,30.37,30.32,30.26,10,10,10,9,5,,0.00,4,,279
2013-10-25,65,50,34,40,37,33,94,70,38,30.28,30.12,29.99,10,10,10,22,11,30,0.00,0,,217
2013-10-26,55,44,32,40,28,17,88,59,23,30.29,30.19,30.07,10,10,10,15,7,22,0.00,0,,313
2013-10-27,70,54,37,38,33,22,79,52,24,30.05,29.90,29.81,10,9,2,16,9,24,0.00,0,,115
2013-10-28,39,36,31,33,31,29,98,86,74,30.25,30.18,30.04,10,9,2,24,16,30,0.00,6,Snow,47
2013-10-29,34,33,32,34,33,32,100,99,96,30.19,30.08,29.99,10,6,2,14,7,,0.17,8,Snow,15
2013-10-30,45,38,32,39,34,32,100,96,77,30.04,29.87,29.75,10,7,0,6,1,,0.01,6,Fog,224
2013-10-31,54,42,30,37,33,30,100,75,43,29.74,29.64,29.57,10,10,10,29,9,40,0.00,2,,278